createdAt,value
2022-12-09T00:00:05.627Z,14.0
2022-12-09T00:02:04.908Z,13.9
2022-12-09T00:04:02.916Z,13.5
2022-12-09T00:06:07.880Z,15.3
2022-12-09T00:08:03.440Z,14.8
2022-12-09T00:10:02.788Z,14.0
2022-12-09T00:12:03.957Z,14.4
2022-12-09T00:14:03.208Z,14.1
2022-12-09T00:16:06.738Z,13.9
2022-12-09T00:18:03.037Z,13.3
2022-12-09T00:20:03.807Z,13.5
2022-12-09T00:22:03.273Z,14.5
2022-12-09T00:24:07.603Z,14.8
2022-12-09T00:26:02.808Z,13.8
2022-12-09T00:28:03.446Z,13.9
2022-12-09T00:30:03.418Z,13.2
2022-12-09T00:32:03.319Z,14.2
2022-12-09T00:34:05.696Z,14.7
2022-12-09T00:36:06.942Z,14.1
2022-12-09T00:38:02.916Z,14.1
2022-12-09T00:40:03.279Z,14.4
2022-12-09T00:42:02.728Z,14.7
2022-12-09T00:44:02.771Z,15.4
2022-12-09T00:46:03.050Z,13.6
2022-12-09T00:48:03.081Z,13.9
2022-12-09T00:50:03.854Z,14.0
2022-12-09T00:52:03.288Z,13.5
2022-12-09T00:54:03.551Z,13.8
2022-12-09T00:56:02.855Z,14.6
2022-12-09T00:58:03.549Z,15.2
2022-12-09T01:00:03.420Z,14.6
2022-12-09T01:02:03.189Z,14.5
2022-12-09T01:04:08.908Z,15.2
2022-12-09T01:06:09.684Z,14.6
2022-12-09T01:08:02.838Z,15.1
2022-12-09T01:10:03.178Z,15.4
2022-12-09T01:12:04.048Z,14.4
2022-12-09T01:14:04.715Z,15.3
2022-12-09T01:16:02.907Z,14.5
2022-12-09T01:18:02.860Z,14.4
2022-12-09T01:20:03.519Z,13.9
2022-12-09T01:22:02.893Z,14.5
2022-12-09T01:24:08.765Z,14.9
2022-12-09T01:26:04.498Z,14.5
2022-12-09T01:28:02.910Z,14.6
2022-12-09T01:30:03.194Z,15.1
2022-12-09T01:32:03.447Z,15.5
2022-12-09T01:34:03.421Z,14.6
2022-12-09T01:36:06.258Z,13.4
2022-12-09T01:38:03.114Z,14.0
2022-12-09T01:40:03.749Z,14.8
2022-12-09T01:42:04.749Z,14.8
2022-12-09T01:44:13.128Z,14.5
2022-12-09T01:46:03.593Z,14.4
2022-12-09T01:48:07.194Z,14.8
2022-12-09T01:50:03.174Z,13.9
2022-12-09T01:52:08.160Z,14.4
2022-12-09T01:54:03.715Z,13.9
2022-12-09T01:56:08.972Z,14.7
2022-12-09T01:58:03.929Z,15.2
2022-12-09T02:00:03.862Z,14.1
2022-12-09T02:02:05.416Z,14.8
2022-12-09T02:04:03.261Z,14.3
2022-12-09T02:06:02.733Z,14.2
2022-12-09T02:08:07.102Z,13.4
2022-12-09T02:10:14.524Z,13.8
2022-12-09T02:12:12.432Z,14.5
2022-12-09T02:14:08.875Z,15.2
2022-12-09T02:16:10.404Z,15.7
2022-12-09T02:18:08.311Z,15.2
2022-12-09T02:20:13.652Z,15.1
2022-12-09T02:22:03.115Z,14.9
2022-12-09T02:24:09.131Z,15.8
2022-12-09T02:26:14.474Z,16.3
2022-12-09T02:28:21.652Z,15.1
2022-12-09T02:30:12.079Z,14.8
2022-12-09T02:32:20.043Z,15.2
2022-12-09T02:34:11.205Z,14.9
2022-12-09T02:36:05.883Z,14.5
2022-12-09T02:38:09.946Z,14.7
2022-12-09T02:40:08.037Z,16.1
2022-12-09T02:42:07.941Z,16.1
2022-12-09T02:44:08.580Z,15.5
2022-12-09T02:46:06.627Z,15.5
2022-12-09T02:48:05.225Z,16.4
2022-12-09T02:50:09.058Z,16.5
2022-12-09T02:52:04.294Z,16.0
2022-12-09T02:54:08.128Z,16.1
2022-12-09T02:56:05.187Z,17.6
2022-12-09T02:58:03.938Z,16.1
2022-12-09T03:00:05.747Z,15.5
2022-12-09T03:02:16.849Z,15.7
2022-12-09T03:04:04.268Z,15.7
2022-12-09T03:06:10.274Z,15.6
2022-12-09T03:08:15.137Z,15.3
2022-12-09T03:10:11.975Z,14.9
2022-12-09T03:12:08.280Z,15.9
2022-12-09T03:14:09.754Z,15.4
2022-12-09T03:16:08.272Z,15.0
2022-12-09T03:18:07.819Z,15.5
2022-12-09T03:20:12.098Z,14.3
2022-12-09T03:22:08.685Z,13.8
2022-12-09T03:24:04.474Z,14.2
2022-12-09T03:26:07.420Z,13.7
2022-12-09T03:28:06.203Z,15.0
2022-12-09T03:30:05.922Z,14.4
2022-12-09T03:32:03.633Z,14.7
2022-12-09T03:34:06.589Z,14.6
2022-12-09T03:36:06.906Z,15.1
2022-12-09T03:38:07.395Z,13.9
2022-12-09T03:40:11.674Z,14.2
2022-12-09T03:42:08.077Z,14.9
2022-12-09T03:44:11.969Z,13.7
2022-12-09T03:46:04.422Z,14.5
2022-12-09T03:48:03.653Z,13.5
2022-12-09T03:50:04.088Z,14.3
2022-12-09T03:52:08.737Z,14.3
2022-12-09T03:54:13.863Z,14.5
2022-12-09T03:56:11.640Z,14.9
2022-12-09T03:58:06.554Z,15.3
2022-12-09T04:00:05.210Z,15.0
2022-12-09T04:02:06.627Z,13.5
2022-12-09T04:04:03.796Z,14.6
2022-12-09T04:06:03.184Z,14.6
2022-12-09T04:08:03.151Z,14.1
2022-12-09T04:10:03.481Z,13.5
2022-12-09T04:12:03.066Z,13.6
2022-12-09T04:14:03.891Z,13.6
2022-12-09T04:16:03.311Z,13.9
2022-12-09T04:18:03.511Z,13.9
2022-12-09T04:20:02.763Z,14.8
2022-12-09T04:22:04.214Z,13.8
2022-12-09T04:24:03.139Z,15.1
2022-12-09T04:26:04.466Z,14.0
2022-12-09T04:28:02.907Z,14.5
2022-12-09T04:30:02.735Z,14.0
2022-12-09T04:32:02.910Z,14.2
2022-12-09T04:34:08.952Z,14.5
2022-12-09T04:36:06.918Z,15.1
2022-12-09T04:38:03.291Z,14.0
2022-12-09T04:40:02.715Z,15.5
2022-12-09T04:42:03.296Z,15.1
2022-12-09T04:44:03.436Z,14.2
2022-12-09T04:46:05.864Z,14.9
2022-12-09T04:48:03.050Z,15.3
2022-12-09T04:50:03.147Z,15.3
2022-12-09T04:52:03.268Z,15.5
2022-12-09T04:54:03.097Z,15.8
2022-12-09T04:56:05.557Z,16.7
2022-12-09T04:58:03.959Z,16.6
2022-12-09T05:00:03.756Z,16.8
2022-12-09T05:02:03.040Z,16.2
2022-12-09T05:04:04.418Z,16.3
2022-12-09T05:06:05.615Z,14.9
2022-12-09T05:08:03.150Z,16.2
2022-12-09T05:10:04.054Z,15.4
2022-12-09T05:12:03.533Z,16.1
2022-12-09T05:14:03.795Z,14.8
2022-12-09T05:16:09.246Z,15.7
2022-12-09T05:18:03.778Z,16.6
2022-12-09T05:20:04.484Z,16.6
2022-12-09T05:22:02.976Z,16.6
2022-12-09T05:24:03.247Z,14.7
2022-12-09T05:26:05.200Z,14.0
2022-12-09T05:28:02.803Z,14.1
2022-12-09T05:30:03.327Z,15.5
2022-12-09T05:32:03.565Z,15.8
2022-12-09T05:34:03.838Z,15.2
2022-12-09T05:36:03.208Z,14.1
2022-12-09T05:38:02.929Z,14.7
2022-12-09T05:40:03.868Z,14.9
2022-12-09T05:42:03.049Z,14.9
2022-12-09T05:44:03.379Z,14.7
2022-12-09T05:46:05.636Z,15.6
2022-12-09T05:48:02.937Z,15.2
2022-12-09T05:50:07.654Z,14.7
2022-12-09T05:52:03.883Z,14.9
2022-12-09T05:54:05.796Z,14.1
2022-12-09T05:56:03.931Z,15.7
2022-12-09T05:58:03.592Z,15.3
2022-12-09T06:00:04.906Z,15.1
2022-12-09T06:02:09.741Z,14.7
2022-12-09T06:04:03.334Z,15.2
2022-12-09T06:06:07.559Z,15.1
2022-12-09T06:08:06.901Z,16.0
2022-12-09T06:10:03.981Z,15.2
2022-12-09T06:12:04.326Z,16.1
2022-12-09T06:14:03.606Z,16.0
2022-12-09T06:16:04.409Z,17.5
2022-12-09T06:18:03.278Z,16.3
2022-12-09T06:20:03.133Z,14.7
2022-12-09T06:22:04.172Z,14.1
2022-12-09T06:24:03.264Z,15.0
2022-12-09T06:26:03.047Z,14.9
2022-12-09T06:28:03.370Z,14.2
2022-12-09T06:30:03.367Z,14.9
2022-12-09T06:32:04.124Z,15.0
2022-12-09T06:34:03.778Z,15.5
2022-12-09T06:36:03.450Z,15.0
2022-12-09T06:38:03.678Z,15.3
2022-12-09T06:40:02.779Z,15.1
2022-12-09T06:42:04.345Z,15.0
2022-12-09T06:44:03.453Z,15.0
2022-12-09T06:46:03.754Z,15.4
2022-12-09T06:48:03.239Z,15.5
2022-12-09T06:50:06.996Z,15.0
2022-12-09T06:52:03.116Z,15.0
2022-12-09T06:54:03.778Z,14.9
2022-12-09T06:56:11.166Z,15.5
2022-12-09T06:58:03.642Z,15.5
2022-12-09T07:00:04.890Z,15.6
2022-12-09T07:02:03.618Z,15.6
2022-12-09T07:04:04.661Z,16.5
2022-12-09T07:06:03.479Z,15.6
2022-12-09T07:08:02.859Z,15.1
2022-12-09T07:10:04.921Z,15.1
2022-12-09T07:12:02.936Z,13.5
2022-12-09T07:14:04.453Z,15.3
2022-12-09T07:16:03.146Z,15.1
2022-12-09T07:18:02.967Z,14.4
2022-12-09T07:20:06.689Z,14.2
2022-12-09T07:22:03.082Z,15.3
2022-12-09T07:24:04.691Z,14.4
2022-12-09T07:26:05.618Z,13.8
2022-12-09T07:28:03.092Z,14.3
2022-12-09T07:30:02.870Z,13.8
2022-12-09T07:32:03.207Z,13.7
2022-12-09T07:34:04.831Z,14.3
2022-12-09T07:36:03.123Z,14.0
2022-12-09T07:38:03.679Z,14.2
2022-12-09T07:40:03.272Z,14.2
2022-12-09T07:42:03.860Z,12.9
2022-12-09T07:44:03.451Z,14.1
2022-12-09T07:46:06.718Z,14.1
2022-12-09T07:48:03.197Z,13.3
2022-12-09T07:50:06.536Z,14.2
2022-12-09T07:52:03.336Z,13.7
2022-12-09T07:54:04.131Z,14.1
2022-12-09T07:56:04.163Z,13.6
2022-12-09T07:58:03.018Z,14.2
2022-12-09T08:00:04.289Z,15.2
2022-12-09T08:02:06.540Z,15.6
2022-12-09T08:04:05.195Z,14.7
2022-12-09T08:06:03.822Z,14.6
2022-12-09T08:08:03.267Z,15.3
2022-12-09T08:10:03.736Z,14.1
2022-12-09T08:12:03.146Z,14.8
2022-12-09T08:14:10.504Z,15.6
2022-12-09T08:16:05.294Z,14.7
2022-12-09T08:18:03.400Z,15.4
2022-12-09T08:20:03.174Z,15.2
2022-12-09T08:22:03.168Z,14.9
2022-12-09T08:24:07.084Z,14.3
2022-12-09T08:26:04.782Z,14.3
2022-12-09T08:28:03.848Z,14.9
2022-12-09T08:30:02.814Z,13.6
2022-12-09T08:32:04.097Z,13.2
2022-12-09T08:34:05.485Z,14.7
2022-12-09T08:36:04.070Z,14.0
2022-12-09T08:38:03.530Z,13.3
2022-12-09T08:40:02.832Z,14.0
2022-12-09T08:42:03.743Z,13.8
2022-12-09T08:44:05.546Z,14.1
2022-12-09T08:46:03.183Z,13.7
2022-12-09T08:48:02.958Z,12.9
2022-12-09T08:50:03.381Z,13.9
2022-12-09T08:52:03.181Z,13.8
2022-12-09T08:54:03.624Z,14.5
2022-12-09T08:56:10.313Z,14.2
2022-12-09T08:58:02.970Z,13.8
2022-12-09T09:00:03.307Z,13.8
2022-12-09T09:02:04.098Z,14.8
2022-12-09T09:04:05.395Z,13.6
2022-12-09T09:06:08.875Z,13.6
2022-12-09T09:08:03.392Z,13.6
2022-12-09T09:10:03.391Z,13.9
2022-12-09T09:12:02.830Z,13.9
2022-12-09T09:14:05.134Z,13.7
2022-12-09T09:16:02.856Z,13.7
2022-12-09T09:18:03.197Z,13.7
2022-12-09T09:20:03.166Z,13.8
2022-12-09T09:22:02.881Z,13.4
2022-12-09T09:24:08.614Z,14.0
2022-12-09T09:26:02.789Z,14.4
2022-12-09T09:28:02.975Z,14.0
2022-12-09T09:30:04.828Z,15.0
2022-12-09T09:32:02.958Z,14.8
2022-12-09T09:34:03.166Z,13.9
2022-12-09T09:36:10.243Z,12.8
2022-12-09T09:38:03.271Z,12.9
2022-12-09T09:40:04.127Z,14.0
2022-12-09T09:42:08.690Z,13.9
2022-12-09T09:44:03.851Z,13.4
2022-12-09T09:46:05.423Z,13.5
2022-12-09T09:48:04.097Z,13.7
2022-12-09T09:50:08.211Z,12.8
2022-12-09T09:52:07.940Z,13.9
2022-12-09T09:54:08.477Z,14.3
2022-12-09T09:56:05.716Z,14.0
2022-12-09T09:58:13.184Z,13.9
2022-12-09T10:00:11.433Z,14.7
2022-12-09T10:02:14.825Z,13.8
2022-12-09T10:04:13.122Z,13.6
2022-12-09T10:06:09.758Z,14.6
2022-12-09T10:08:20.065Z,14.4
2022-12-09T10:10:17.049Z,14.8
2022-12-09T10:12:18.875Z,15.1
2022-12-09T10:14:15.673Z,14.9
2022-12-09T10:16:14.432Z,14.0
2022-12-09T10:18:13.056Z,14.8
2022-12-09T10:20:08.144Z,13.5
2022-12-09T10:22:13.022Z,14.4
2022-12-09T10:24:18.299Z,14.5
2022-12-09T10:26:06.848Z,14.0
2022-12-09T10:28:09.560Z,15.2
2022-12-09T10:30:08.993Z,14.8
2022-12-09T10:32:03.472Z,15.8
2022-12-09T10:34:03.054Z,15.7
2022-12-09T10:36:03.517Z,15.7
2022-12-09T10:38:09.745Z,14.4
2022-12-09T10:40:18.642Z,14.4
2022-12-09T10:42:14.131Z,14.7
2022-12-09T10:44:21.094Z,15.2
2022-12-09T10:46:17.756Z,15.2
2022-12-09T10:48:02.844Z,14.4
2022-12-09T10:50:05.878Z,14.5
2022-12-09T10:52:04.432Z,14.5
2022-12-09T10:54:15.412Z,17.0
2022-12-09T10:56:04.987Z,16.0
2022-12-09T10:58:16.405Z,15.9
2022-12-09T11:00:08.296Z,15.4
2022-12-09T11:02:15.039Z,15.8
2022-12-09T11:04:13.524Z,14.0
2022-12-09T11:06:15.392Z,15.9
2022-12-09T11:08:04.885Z,15.3
2022-12-09T11:10:17.646Z,13.5
2022-12-09T11:12:06.657Z,14.6
2022-12-09T11:14:03.597Z,14.3
2022-12-09T11:16:04.956Z,15.5
2022-12-09T11:18:06.869Z,15.8
2022-12-09T11:20:21.541Z,14.2
2022-12-09T11:22:15.954Z,15.5
2022-12-09T11:24:04.701Z,15.5
2022-12-09T11:26:06.181Z,14.3
2022-12-09T11:28:06.065Z,15.1
2022-12-09T11:30:13.954Z,14.8
2022-12-09T11:32:03.169Z,14.8
2022-12-09T11:34:06.510Z,14.7
2022-12-09T11:38:15.263Z,15.0
2022-12-09T11:40:02.798Z,15.0
2022-12-09T11:42:19.246Z,15.8
2022-12-09T11:44:13.467Z,15.8
2022-12-09T11:46:15.689Z,15.7
2022-12-09T11:48:27.691Z,13.6
2022-12-09T11:50:15.690Z,14.6
2022-12-09T11:52:06.541Z,14.8
2022-12-09T11:54:11.367Z,14.3
2022-12-09T11:56:07.519Z,15.3
2022-12-09T11:58:06.908Z,14.6
2022-12-09T12:00:07.311Z,16.0
2022-12-09T12:02:11.954Z,14.9
2022-12-09T12:04:09.989Z,15.5
2022-12-09T12:06:07.472Z,13.6
2022-12-09T12:08:13.914Z,14.2
2022-12-09T12:10:06.162Z,16.0
2022-12-09T12:12:09.716Z,14.7
2022-12-09T12:14:12.349Z,15.5
2022-12-09T12:16:10.957Z,14.4
2022-12-09T12:18:08.596Z,13.0
2022-12-09T12:20:05.092Z,14.8
2022-12-09T12:22:21.688Z,14.5
2022-12-09T12:24:21.708Z,13.3
2022-12-09T12:26:10.832Z,14.8
2022-12-09T12:28:18.340Z,15.7
2022-12-09T12:30:06.057Z,14.8
2022-12-09T12:32:18.050Z,15.0
2022-12-09T12:34:25.317Z,15.3
2022-12-09T12:36:12.750Z,14.6
2022-12-09T12:38:18.477Z,14.8
2022-12-09T12:40:09.219Z,14.1
2022-12-09T12:42:12.666Z,14.6
2022-12-09T12:44:25.607Z,14.7
2022-12-09T12:46:14.878Z,14.2
2022-12-09T12:48:08.382Z,14.2
2022-12-09T12:50:20.321Z,13.1
2022-12-09T12:52:46.984Z,13.4
2022-12-09T12:54:09.782Z,13.5
2022-12-09T12:56:07.587Z,13.5
2022-12-09T12:58:10.618Z,14.4
2022-12-09T13:00:12.535Z,13.7
2022-12-09T13:02:20.994Z,14.8
2022-12-09T13:04:13.504Z,14.0
2022-12-09T13:06:04.297Z,13.9
2022-12-09T13:08:09.418Z,13.9
2022-12-09T13:10:08.502Z,13.9
2022-12-09T13:12:11.946Z,13.5
2022-12-09T13:14:07.906Z,14.0
2022-12-09T13:16:10.588Z,14.0
2022-12-09T13:18:12.144Z,13.7
2022-12-09T13:20:06.111Z,13.3
2022-12-09T13:22:04.560Z,14.3
2022-12-09T13:24:15.518Z,14.2
2022-12-09T13:26:19.044Z,14.6
2022-12-09T13:28:10.342Z,14.5
2022-12-09T13:30:10.435Z,14.3
2022-12-09T13:32:12.616Z,13.4
2022-12-09T13:34:19.914Z,14.2
2022-12-09T13:36:07.162Z,13.6
2022-12-09T13:38:02.699Z,13.5
2022-12-09T13:40:06.078Z,13.4
2022-12-09T13:42:11.726Z,14.6
2022-12-09T13:44:09.409Z,15.1
2022-12-09T13:46:03.057Z,14.4
2022-12-09T13:48:17.226Z,14.6
2022-12-09T13:50:06.235Z,14.5
2022-12-09T13:52:03.241Z,14.6
2022-12-09T13:54:06.559Z,13.6
2022-12-09T13:56:05.824Z,15.4
2022-12-09T13:58:20.454Z,14.2
2022-12-09T14:00:06.224Z,14.2
2022-12-09T14:02:12.491Z,14.9
2022-12-09T14:04:12.778Z,14.3
2022-12-09T14:06:07.431Z,13.6
2022-12-09T14:08:08.312Z,14.9
2022-12-09T14:10:05.242Z,15.5
2022-12-09T14:12:05.924Z,15.4
2022-12-09T14:14:21.748Z,15.2
2022-12-09T14:16:17.818Z,15.1
2022-12-09T14:18:14.550Z,16.1
2022-12-09T14:20:15.253Z,15.1
2022-12-09T14:22:22.064Z,14.7
2022-12-09T14:24:21.700Z,15.6
2022-12-09T14:26:05.391Z,14.6
2022-12-09T14:28:23.991Z,16.1
2022-12-09T14:30:15.300Z,14.4
2022-12-09T14:32:05.302Z,14.8
2022-12-09T14:34:21.692Z,13.6
2022-12-09T14:36:08.872Z,14.9
2022-12-09T14:38:15.612Z,14.3
2022-12-09T14:40:22.108Z,14.4
2022-12-09T14:42:08.094Z,14.4
2022-12-09T14:44:17.227Z,13.8
2022-12-09T14:46:05.171Z,14.7
2022-12-09T14:48:09.321Z,14.8
2022-12-09T14:50:12.651Z,13.8
2022-12-09T14:52:11.313Z,13.6
2022-12-09T14:54:07.032Z,15.2
2022-12-09T14:56:03.593Z,14.0
2022-12-09T14:58:03.395Z,14.3
2022-12-09T15:00:05.463Z,14.4
2022-12-09T15:02:13.526Z,14.0
2022-12-09T15:04:02.756Z,13.9
2022-12-09T15:06:05.512Z,13.3
2022-12-09T15:08:02.954Z,13.8
2022-12-09T15:10:06.432Z,13.4
2022-12-09T15:12:09.797Z,13.5
2022-12-09T15:14:17.361Z,14.2
2022-12-09T15:16:02.777Z,13.9
2022-12-09T15:18:07.830Z,12.5
2022-12-09T15:20:04.810Z,13.8
2022-12-09T15:22:03.349Z,14.1
2022-12-09T15:24:03.647Z,13.9
2022-12-09T15:26:06.374Z,13.8
2022-12-09T15:28:05.337Z,13.7
2022-12-09T15:30:21.401Z,13.9
2022-12-09T15:32:02.720Z,13.9
2022-12-09T15:34:14.693Z,13.6
2022-12-09T15:36:07.536Z,13.9
2022-12-09T15:38:06.990Z,12.8
2022-12-09T15:40:08.339Z,12.8
2022-12-09T15:42:07.082Z,13.4
2022-12-09T15:44:11.925Z,13.6
2022-12-09T15:46:04.759Z,13.6
2022-12-09T15:48:08.603Z,13.8
2022-12-09T15:50:11.997Z,14.3
2022-12-09T15:52:06.177Z,14.3
2022-12-09T15:54:06.548Z,14.2
2022-12-09T15:56:11.618Z,14.1
2022-12-09T15:58:06.915Z,13.9
2022-12-09T16:00:04.324Z,13.5
2022-12-09T16:02:03.707Z,13.5
2022-12-09T16:04:06.609Z,14.2
2022-12-09T16:06:06.936Z,13.9
2022-12-09T16:08:03.047Z,13.1
2022-12-09T16:10:09.353Z,13.2
2022-12-09T16:12:03.316Z,12.6
2022-12-09T16:14:03.346Z,13.9
2022-12-09T16:16:21.740Z,13.4
2022-12-09T16:18:04.441Z,13.9
2022-12-09T16:20:21.779Z,13.5
2022-12-09T16:22:07.884Z,12.8
2022-12-09T16:24:12.356Z,13.8
2022-12-09T16:26:06.956Z,13.8
2022-12-09T16:28:05.658Z,13.7
2022-12-09T16:30:11.952Z,13.4
2022-12-09T16:32:21.945Z,14.0
2022-12-09T16:34:03.327Z,13.8
2022-12-09T16:36:06.097Z,14.4
2022-12-09T16:38:15.723Z,13.3
2022-12-09T16:40:21.707Z,13.6
2022-12-09T16:42:03.425Z,13.2
2022-12-09T16:44:03.062Z,13.8
2022-12-09T16:46:21.723Z,14.1
2022-12-09T16:48:04.544Z,14.6
2022-12-09T16:50:02.832Z,13.5
2022-12-09T16:52:02.897Z,14.2
2022-12-09T16:54:02.965Z,14.1
2022-12-09T16:56:04.740Z,14.6
2022-12-09T16:58:02.469Z,14.6
2022-12-09T17:00:02.904Z,13.9
2022-12-09T17:02:04.447Z,13.3
2022-12-09T17:04:10.591Z,13.7
2022-12-09T17:06:02.752Z,13.2
2022-12-09T17:08:02.939Z,13.7
2022-12-09T17:10:02.702Z,15.6
2022-12-09T17:12:03.468Z,14.3
2022-12-09T17:14:02.683Z,14.5
2022-12-09T17:16:05.958Z,14.2
2022-12-09T17:18:03.293Z,14.4
2022-12-09T17:20:02.704Z,14.8
2022-12-09T17:22:02.698Z,13.7
2022-12-09T17:24:03.375Z,14.7
2022-12-09T17:26:06.273Z,13.9
2022-12-09T17:28:05.259Z,13.9
2022-12-09T17:30:02.901Z,13.5
2022-12-09T17:32:03.646Z,13.0
2022-12-09T17:34:02.747Z,13.2
2022-12-09T17:36:03.295Z,14.3
2022-12-09T17:38:02.873Z,13.7
2022-12-09T17:40:04.088Z,13.3
2022-12-09T17:42:03.879Z,12.5
2022-12-09T17:44:03.321Z,13.1
2022-12-09T17:46:05.257Z,13.7
2022-12-09T17:48:03.639Z,13.6
2022-12-09T17:50:02.695Z,12.9
2022-12-09T17:52:03.064Z,12.6
2022-12-09T17:54:02.659Z,13.4
2022-12-09T17:56:05.819Z,13.1
2022-12-09T17:58:02.677Z,13.6
2022-12-09T18:00:02.889Z,13.8
2022-12-09T18:02:03.184Z,13.2
2022-12-09T18:04:08.452Z,12.8
2022-12-09T18:06:02.689Z,13.0
2022-12-09T18:08:02.796Z,12.9
2022-12-09T18:10:03.777Z,12.2
2022-12-09T18:12:02.715Z,11.7
2022-12-09T18:14:03.186Z,11.7
2022-12-09T18:16:09.331Z,12.2
2022-12-09T18:18:02.682Z,11.8
2022-12-09T18:20:02.870Z,11.4
2022-12-09T18:22:03.753Z,11.4
2022-12-09T18:24:03.909Z,11.0
2022-12-09T18:26:06.385Z,11.3
2022-12-09T18:28:03.553Z,10.2
2022-12-09T18:30:02.695Z,11.2
2022-12-09T18:32:03.328Z,8.1
2022-12-09T18:34:02.843Z,7.6
2022-12-09T18:36:07.299Z,7.1
2022-12-09T18:38:09.675Z,5.6
2022-12-09T18:40:03.611Z,4.4
2022-12-09T18:42:03.139Z,3.2
2022-12-09T18:44:07.180Z,3.9
2022-12-09T18:46:03.294Z,2.6
2022-12-09T18:48:02.726Z,2.0
2022-12-09T18:50:03.260Z,2.0
2022-12-09T18:52:03.886Z,1.8
2022-12-09T18:54:04.435Z,1.4
2022-12-09T18:56:04.582Z,0.9
2022-12-09T18:58:02.642Z,1.1
2022-12-09T19:00:02.881Z,0.8
2022-12-09T19:02:02.718Z,0.9
2022-12-09T19:04:05.769Z,0.8
2022-12-09T19:06:03.229Z,0.8
2022-12-09T19:08:02.863Z,0.9
2022-12-09T19:10:02.697Z,0.8
2022-12-09T19:12:29.967Z,0.9
2022-12-09T19:14:04.940Z,0.9
2022-12-09T19:16:04.582Z,1.0
2022-12-09T19:18:03.251Z,1.1
2022-12-09T19:20:02.918Z,1.1
2022-12-09T19:22:03.875Z,1.1
2022-12-09T19:24:02.958Z,0.9
2022-12-09T19:26:03.356Z,0.9
2022-12-09T19:28:03.592Z,0.7
2022-12-09T19:30:02.695Z,0.8
2022-12-09T19:32:02.763Z,0.8
2022-12-09T19:34:05.068Z,0.8
2022-12-09T19:36:03.645Z,1.1
2022-12-09T19:38:02.515Z,0.9
2022-12-09T19:40:03.924Z,0.9
2022-12-09T19:42:03.263Z,0.8
2022-12-09T19:44:04.507Z,0.7
2022-12-09T19:46:05.442Z,0.8
2022-12-09T19:48:02.672Z,0.9
2022-12-09T19:50:03.372Z,0.7
2022-12-09T19:52:03.686Z,0.8
2022-12-09T19:54:03.409Z,0.8
2022-12-09T19:56:04.146Z,0.8
2022-12-09T19:58:03.516Z,0.7
2022-12-09T20:00:02.792Z,0.9
2022-12-09T20:02:03.498Z,1.2
2022-12-09T20:04:25.247Z,1.1
2022-12-09T20:06:02.717Z,0.7
2022-12-09T20:08:02.795Z,0.8
2022-12-09T20:10:02.710Z,0.7
2022-12-09T20:12:02.735Z,0.6
2022-12-09T20:14:04.789Z,0.6
2022-12-09T20:16:05.398Z,0.6
2022-12-09T20:18:03.573Z,0.7
2022-12-09T20:20:03.405Z,0.6
2022-12-09T20:22:02.753Z,0.7
2022-12-09T20:24:04.006Z,0.6
2022-12-09T20:26:05.407Z,0.7
2022-12-09T20:28:05.306Z,0.6
2022-12-09T20:30:02.730Z,0.7
2022-12-09T20:32:03.143Z,0.7
2022-12-09T20:34:05.131Z,0.7
2022-12-09T20:36:07.841Z,0.9
2022-12-09T20:38:02.813Z,0.6
2022-12-09T20:40:04.427Z,0.7
2022-12-09T20:42:02.793Z,0.6
2022-12-09T20:44:02.711Z,0.7
2022-12-09T20:46:05.484Z,0.7
2022-12-09T20:48:02.746Z,0.7
2022-12-09T20:50:02.767Z,0.6
2022-12-09T20:52:03.164Z,0.8
2022-12-09T20:54:04.714Z,0.8
2022-12-09T20:56:04.172Z,0.8
2022-12-09T20:58:02.683Z,0.8
2022-12-09T21:00:04.071Z,0.8
2022-12-09T21:02:02.752Z,0.7
2022-12-09T21:04:05.757Z,0.7
2022-12-09T21:06:03.639Z,1.0
2022-12-09T21:08:03.341Z,0.9
2022-12-09T21:10:03.332Z,0.7
2022-12-09T21:12:02.728Z,0.9
2022-12-09T21:14:06.338Z,0.8
2022-12-09T21:16:06.118Z,0.9
2022-12-09T21:18:02.667Z,1.0
2022-12-09T21:20:02.842Z,1.7
2022-12-09T21:22:04.078Z,1.5
2022-12-09T21:24:03.400Z,2.5
2022-12-09T21:26:05.867Z,4.1
2022-12-09T21:28:03.064Z,4.1
2022-12-09T21:30:03.447Z,4.7
2022-12-09T21:32:03.429Z,4.4
2022-12-09T21:34:05.471Z,8.1
2022-12-09T21:36:05.286Z,5.4
2022-12-09T21:38:03.479Z,8.5
2022-12-09T21:40:02.897Z,7.9
2022-12-09T21:42:02.740Z,8.1
2022-12-09T21:44:04.216Z,7.4
2022-12-09T21:46:04.033Z,9.3
2022-12-09T21:48:03.239Z,8.9
2022-12-09T21:50:02.857Z,6.5
2022-12-09T21:52:05.316Z,5.0
2022-12-09T21:54:04.005Z,3.9
2022-12-09T21:56:03.653Z,1.8
2022-12-09T21:58:02.658Z,1.9
2022-12-09T22:00:02.912Z,1.9
2022-12-09T22:02:02.773Z,1.3
2022-12-09T22:04:06.302Z,1.0
2022-12-09T22:06:02.654Z,0.8
2022-12-09T22:08:04.071Z,0.8
2022-12-09T22:10:03.654Z,0.9
2022-12-09T22:12:03.254Z,1.3
2022-12-09T22:14:04.384Z,1.6
2022-12-09T22:16:06.027Z,1.4
2022-12-09T22:18:03.510Z,1.2
2022-12-09T22:20:43.954Z,1.0
2022-12-09T22:22:07.434Z,1.4
2022-12-09T22:24:06.135Z,1.5
2022-12-09T22:26:06.185Z,2.0
2022-12-09T22:28:02.894Z,1.4
2022-12-09T22:30:03.371Z,1.7
2022-12-09T22:32:02.831Z,1.2
2022-12-09T22:34:06.551Z,1.4
2022-12-09T22:36:04.431Z,34.5
2022-12-09T22:38:08.778Z,2.8
2022-12-09T22:40:03.551Z,2.1
2022-12-09T22:42:03.303Z,1.4
2022-12-09T22:44:04.385Z,1.5
2022-12-09T22:46:06.974Z,1.3
2022-12-09T22:48:02.844Z,1.0
2022-12-09T22:50:03.331Z,1.0
2022-12-09T22:52:03.582Z,0.9
2022-12-09T22:54:05.574Z,1.0
2022-12-09T22:56:04.167Z,1.3
2022-12-09T22:58:04.074Z,1.8
2022-12-09T23:00:02.745Z,1.6
2022-12-09T23:02:03.330Z,2.1
2022-12-09T23:04:04.480Z,2.5
2022-12-09T23:06:03.288Z,2.7
2022-12-09T23:08:02.806Z,2.3
2022-12-09T23:10:03.826Z,1.9
2022-12-09T23:12:02.697Z,2.2
2022-12-09T23:14:02.970Z,1.8
2022-12-09T23:16:04.789Z,2.1
2022-12-09T23:18:02.836Z,1.9
2022-12-09T23:20:02.786Z,2.3
2022-12-09T23:22:03.043Z,2.4
2022-12-09T23:24:04.569Z,3.8
2022-12-09T23:26:04.834Z,4.3
2022-12-09T23:28:03.965Z,5.5
2022-12-09T23:30:02.821Z,6.5
2022-12-09T23:32:02.899Z,3.3
2022-12-09T23:34:05.286Z,2.5
2022-12-09T23:36:05.600Z,4.7
2022-12-09T23:38:02.881Z,4.8
2022-12-09T23:40:02.908Z,4.9
2022-12-09T23:42:02.781Z,3.5
2022-12-09T23:44:03.248Z,7.0
2022-12-09T23:46:03.554Z,8.0
2022-12-09T23:48:02.649Z,6.9
2022-12-09T23:50:02.703Z,6.2
2022-12-09T23:52:02.872Z,5.9
2022-12-09T23:54:05.269Z,6.2
2022-12-09T23:56:02.733Z,9.1
2022-12-09T23:58:02.894Z,10.4
